James Store, Virginia
Current Conditions -  °F | °C
As of 8:35 AM on Wednesday 22 Oct 2014 (Local Time) from KW75 Reporting Station
Overcast Overcast  
Wind Chill: 55°   Ceiling: 1000
Heat Index: 55°   Visibility: 10mi
Dew Point: 52°   Wind: 14mph
Humidity: 88%   Direction: 320°NW
Pressure: 29.83"   Gusts: 22mph
Location:  37.471°N, 76.3799°W
Report Text: KW75 221235Z AUTO 32012G19KT 10SM OVC010 13/11 A2983 RMK AO1 T01290109
Loading
Personal Weather Stations






























Interactive Weather Map
Tropical Storm Tracking
New forecast layout! Learn more

10-Day Weather Forecast

Advertisements
Track Severe Weather on mobile